Unionville, New York
Current Conditions -  °F | °C
As of 6:53 AM on Sunday 23 Nov 2014 (Local Time) from KFWN Reporting Station
Overcast Overcast  
Wind Chill:   Ceiling: 7000
Heat Index:   Visibility: 10mi
Dew Point: -6°   Wind: 3mph
Humidity: 49%   Direction: 220°SW
Pressure: 30.17"   Gusts: NA
Location:  41.3°N, 74.56°W
Report Text: KFWN 231153Z AUTO 22003KT 10SM BKN070 OVC090 04/M06 A3017 RMK AO2 SLP218 T00391061 10039 20033 53006
Loading
Personal Weather Stations






























Interactive Weather Map New forecast layout! Learn more

10-Day Weather Forecast

Advertisements
Track Severe Weather on mobile